createdAt,value
2017-12-29T00:00:02.683Z,99693.17
2017-12-29T00:02:30.133Z,99690.27
2017-12-29T00:04:57.598Z,99693.70
2017-12-29T00:07:25.002Z,99700.19
2017-12-29T00:09:52.506Z,99702.86
2017-12-29T00:12:19.970Z,99705.34
2017-12-29T00:14:47.378Z,99707.92
2017-12-29T00:17:14.872Z,99708.22
2017-12-29T00:19:42.291Z,99717.10
2017-12-29T00:22:09.711Z,99718.95
2017-12-29T00:24:37.149Z,99713.77
2017-12-29T00:27:04.615Z,99719.87
2017-12-29T00:29:32.031Z,99719.34
2017-12-29T00:31:59.455Z,99725.75
2017-12-29T00:34:26.977Z,99733.56
2017-12-29T00:36:54.378Z,99731.50
2017-12-29T00:39:21.884Z,99732.95
2017-12-29T00:41:49.339Z,99735.50
2017-12-29T00:44:16.797Z,99730.86
2017-12-29T00:46:44.255Z,99734.14
2017-12-29T00:49:11.664Z,99733.63
2017-12-29T00:51:39.163Z,99738.36
2017-12-29T00:54:06.586Z,99742.19
2017-12-29T00:56:34.012Z,99739.20
2017-12-29T00:59:01.415Z,99744.15
2017-12-29T01:01:28.854Z,99744.34
2017-12-29T01:03:56.270Z,99739.60
2017-12-29T01:06:23.681Z,99745.88
2017-12-29T01:08:51.098Z,99746.48
2017-12-29T01:11:18.615Z,99750.19
2017-12-29T01:13:46.074Z,99754.53
2017-12-29T01:16:13.502Z,99757.39
2017-12-29T01:18:40.899Z,99755.46
2017-12-29T01:21:08.339Z,99760.16
2017-12-29T01:23:35.752Z,99756.47
2017-12-29T01:26:03.259Z,99754.40
2017-12-29T01:28:30.687Z,99758.94
2017-12-29T01:30:58.091Z,99765.43
2017-12-29T01:33:25.504Z,99765.75
2017-12-29T01:35:52.931Z,99770.06
2017-12-29T01:38:20.337Z,99773.26
2017-12-29T01:40:47.798Z,99776.45
2017-12-29T01:43:15.259Z,99769.67
2017-12-29T01:45:42.668Z,99775.95
2017-12-29T01:48:10.071Z,99780.79
2017-12-29T01:50:37.773Z,99782.65
2017-12-29T01:53:05.278Z,99787.08
2017-12-29T01:55:32.678Z,99786.88
2017-12-29T01:58:00.194Z,99796.86
2017-12-29T02:00:27.618Z,99800.56
2017-12-29T02:02:55.014Z,99801.69
2017-12-29T02:05:22.451Z,99799.61
2017-12-29T02:07:49.855Z,99820.72
2017-12-29T02:10:17.261Z,99809.09
2017-12-29T02:12:44.682Z,99821.32
2017-12-29T02:15:12.090Z,99820.83
2017-12-29T02:17:39.494Z,99817.12
2017-12-29T02:20:06.915Z,99824.33
2017-12-29T02:22:34.331Z,99827.91
2017-12-29T02:25:01.739Z,99820.61
2017-12-29T02:27:29.162Z,99823.38
2017-12-29T02:29:56.595Z,99830.44
2017-12-29T02:32:23.995Z,99833.30
2017-12-29T02:34:51.403Z,99835.67
2017-12-29T02:37:18.842Z,99842.06
2017-12-29T02:39:46.247Z,99841.03
2017-12-29T02:42:13.706Z,99848.72
2017-12-29T02:44:41.131Z,99849.13
2017-12-29T02:47:08.542Z,99844.63
2017-12-29T02:49:35.958Z,99846.48
2017-12-29T02:52:03.434Z,99850.80
2017-12-29T02:54:30.885Z,99848.02
2017-12-29T02:56:58.302Z,99853.25
2017-12-29T02:59:25.896Z,99857.08
2017-12-29T03:01:53.363Z,99866.63
2017-12-29T03:04:20.815Z,99857.89
2017-12-29T03:06:48.226Z,99861.77
2017-12-29T03:09:15.637Z,99865.03
2017-12-29T03:11:43.077Z,99860.86
2017-12-29T03:14:10.484Z,99867.42
2017-12-29T03:16:37.898Z,99872.61
2017-12-29T03:19:05.328Z,99876.27
2017-12-29T03:21:32.746Z,99876.84
2017-12-29T03:24:00.142Z,99881.38
2017-12-29T03:26:27.561Z,99888.58
2017-12-29T03:28:54.970Z,99885.05
2017-12-29T03:31:22.371Z,99894.41
2017-12-29T03:33:49.790Z,99894.22
2017-12-29T03:36:17.186Z,99902.53
2017-12-29T03:38:44.627Z,99896.61
2017-12-29T03:41:12.032Z,99900.16
2017-12-29T03:43:39.447Z,99896.16
2017-12-29T03:46:06.877Z,99912.90
2017-12-29T03:48:34.278Z,99907.88
2017-12-29T03:51:01.787Z,99907.14
2017-12-29T03:53:29.214Z,99916.30
2017-12-29T03:55:57.098Z,99909.17
2017-12-29T03:58:24.562Z,99904.63
2017-12-29T04:00:51.998Z,99906.44
2017-12-29T04:03:19.403Z,99908.04
2017-12-29T04:05:46.810Z,99908.66
2017-12-29T04:08:14.280Z,99918.75
2017-12-29T04:10:41.674Z,99919.84
2017-12-29T04:13:09.074Z,99919.61
2017-12-29T04:15:36.559Z,99920.08
2017-12-29T04:18:03.962Z,99925.42
2017-12-29T04:20:31.366Z,99928.38
2017-12-29T04:22:58.787Z,99930.59
2017-12-29T04:25:26.184Z,99925.67
2017-12-29T04:27:53.631Z,99933.36
2017-12-29T04:30:21.098Z,99936.14
2017-12-29T04:32:48.551Z,99935.71
2017-12-29T04:35:15.971Z,99938.33
2017-12-29T04:37:43.419Z,99936.41
2017-12-29T04:40:10.822Z,99940.80
2017-12-29T04:42:38.233Z,99948.23
2017-12-29T04:45:05.639Z,99947.33
2017-12-29T04:47:33.058Z,99952.09
2017-12-29T04:50:00.459Z,99948.20
2017-12-29T04:52:27.863Z,99953.28
2017-12-29T04:54:55.364Z,99950.81
2017-12-29T04:57:22.765Z,99953.92
2017-12-29T04:59:50.170Z,99960.56
2017-12-29T05:02:17.605Z,99958.70
2017-12-29T05:04:45.008Z,99966.31
2017-12-29T05:07:12.439Z,99968.50
2017-12-29T05:09:40.974Z,99968.63
2017-12-29T05:12:08.378Z,99973.77
2017-12-29T05:14:35.840Z,99979.34
2017-12-29T05:17:03.294Z,99974.22
2017-12-29T05:19:30.699Z,99977.36
2017-12-29T05:21:58.106Z,99978.96
2017-12-29T05:24:25.523Z,99975.12
2017-12-29T05:26:53.005Z,99983.36
2017-12-29T05:29:20.476Z,99977.70
2017-12-29T05:31:47.851Z,99982.31
2017-12-29T05:34:15.247Z,99979.69
2017-12-29T05:36:42.678Z,99975.44
2017-12-29T05:39:10.083Z,99967.58
2017-12-29T05:41:37.476Z,99972.41
2017-12-29T05:44:04.916Z,99971.87
2017-12-29T05:46:32.366Z,99970.66
2017-12-29T05:48:59.762Z,99978.70
2017-12-29T05:51:27.191Z,99976.48
2017-12-29T05:53:54.591Z,99973.73
2017-12-29T05:56:21.995Z,99984.59
2017-12-29T05:58:49.446Z,99979.91
2017-12-29T06:01:16.851Z,99982.81
2017-12-29T06:03:44.358Z,99983.04
2017-12-29T06:06:11.794Z,99979.97
2017-12-29T06:08:39.187Z,99979.48
2017-12-29T06:11:06.623Z,99988.41
2017-12-29T06:13:34.048Z,99982.15
2017-12-29T06:16:01.446Z,99981.70
2017-12-29T06:18:28.886Z,99982.62
2017-12-29T06:20:56.286Z,99994.35
2017-12-29T06:23:23.723Z,99990.11
2017-12-29T06:25:51.144Z,99990.64
2017-12-29T06:28:18.592Z,99982.73
2017-12-29T06:30:46.079Z,99993.55
2017-12-29T06:33:13.483Z,99997.78
2017-12-29T06:35:40.918Z,99993.55
2017-12-29T06:38:08.314Z,99996.92
2017-12-29T06:40:35.728Z,100011.34
2017-12-29T06:43:03.166Z,100005.69
2017-12-29T06:45:30.567Z,100005.69
2017-12-29T06:47:57.976Z,100012.92
2017-12-29T06:50:25.428Z,100014.54
2017-12-29T06:52:52.834Z,100019.28
2017-12-29T06:55:20.248Z,100025.57
2017-12-29T06:57:47.670Z,100028.37
2017-12-29T07:00:15.075Z,100034.77
2017-12-29T07:02:42.600Z,100028.31
2017-12-29T07:05:10.009Z,100038.45
2017-12-29T07:07:37.438Z,100044.21
2017-12-29T07:10:04.844Z,100041.41
2017-12-29T07:12:32.283Z,100049.31
2017-12-29T07:14:59.782Z,100051.52
2017-12-29T07:17:27.255Z,100049.08
2017-12-29T07:19:54.693Z,100055.66
2017-12-29T07:22:22.109Z,100060.00
2017-12-29T07:24:49.714Z,100054.55
2017-12-29T07:27:17.119Z,100062.97
2017-12-29T07:29:44.526Z,100063.06
2017-12-29T07:32:11.951Z,100059.32
2017-12-29T07:34:39.697Z,100063.63
2017-12-29T07:37:07.217Z,100060.32
2017-12-29T07:39:34.630Z,100069.45
2017-12-29T07:42:02.106Z,100059.86
2017-12-29T07:44:29.680Z,100062.23
2017-12-29T07:46:57.150Z,100069.63
2017-12-29T07:49:24.630Z,100069.59
2017-12-29T07:51:52.062Z,100077.05
2017-12-29T07:54:19.474Z,100083.73
2017-12-29T07:56:46.894Z,100077.80
2017-12-29T07:59:14.326Z,100082.58
2017-12-29T08:01:41.734Z,100090.37
2017-12-29T08:04:09.142Z,100088.31
2017-12-29T08:06:36.643Z,100091.55
2017-12-29T08:09:04.049Z,100094.33
2017-12-29T08:11:31.458Z,100098.92
2017-12-29T08:13:58.976Z,100100.66
2017-12-29T08:16:26.390Z,100102.80
2017-12-29T08:18:53.891Z,100102.81
2017-12-29T08:21:21.323Z,100111.73
2017-12-29T08:23:48.735Z,100121.02
2017-12-29T08:26:16.145Z,100121.89
2017-12-29T08:28:43.559Z,100124.67
2017-12-29T08:31:11.071Z,100133.05
2017-12-29T08:33:38.479Z,100129.48
2017-12-29T08:36:05.894Z,100132.56
2017-12-29T08:38:33.298Z,100135.65
2017-12-29T08:41:00.706Z,100135.39
2017-12-29T08:43:28.259Z,100133.77
2017-12-29T08:45:55.672Z,100144.61
2017-12-29T08:48:23.085Z,100146.15
2017-12-29T08:50:50.529Z,100149.36
2017-12-29T08:53:17.930Z,100151.73
2017-12-29T08:55:45.351Z,100147.53
2017-12-29T08:58:12.792Z,100152.33
2017-12-29T09:00:40.276Z,100155.02
2017-12-29T09:03:07.691Z,100153.03
2017-12-29T09:05:35.091Z,100154.94
2017-12-29T09:08:02.503Z,100154.14
2017-12-29T09:10:29.966Z,100160.48
2017-12-29T09:12:57.406Z,100164.21
2017-12-29T09:15:24.815Z,100164.51
2017-12-29T09:17:52.223Z,100161.74
2017-12-29T09:20:19.656Z,100166.27
2017-12-29T09:22:47.062Z,100163.58
2017-12-29T09:25:14.506Z,100157.16
2017-12-29T09:27:41.927Z,100158.03
2017-12-29T09:30:09.335Z,100159.50
2017-12-29T09:32:36.777Z,100163.80
2017-12-29T09:35:04.186Z,100157.89
2017-12-29T09:37:31.586Z,100151.53
2017-12-29T09:39:59.011Z,100157.23
2017-12-29T09:42:26.423Z,100152.28
2017-12-29T09:44:54.419Z,100161.37
2017-12-29T09:47:21.822Z,100157.12
2017-12-29T09:49:49.236Z,100157.41
2017-12-29T09:52:16.807Z,100163.22
2017-12-29T09:54:44.231Z,100155.66
2017-12-29T09:57:11.659Z,100150.30
2017-12-29T09:59:39.223Z,100151.66
2017-12-29T10:02:06.630Z,100151.58
2017-12-29T10:04:34.125Z,100155.95
2017-12-29T10:07:01.547Z,100155.04
2017-12-29T10:09:28.980Z,100145.66
2017-12-29T10:11:56.392Z,100147.00
2017-12-29T10:14:23.804Z,100152.00
2017-12-29T10:16:51.230Z,100144.20
2017-12-29T10:19:18.651Z,100149.84
2017-12-29T10:21:46.059Z,100143.98
2017-12-29T10:24:13.495Z,100140.06
2017-12-29T10:26:40.911Z,100144.12
2017-12-29T10:29:08.338Z,100142.39
2017-12-29T10:31:35.749Z,100143.20
2017-12-29T10:34:03.167Z,100134.70
2017-12-29T10:36:30.571Z,100134.15
2017-12-29T10:38:58.111Z,100133.93
2017-12-29T10:41:25.663Z,100132.41
2017-12-29T10:43:53.060Z,100138.73
2017-12-29T10:46:20.494Z,100133.45
2017-12-29T10:48:47.899Z,100135.76
2017-12-29T10:51:15.389Z,100131.56
2017-12-29T10:53:42.815Z,100135.73
2017-12-29T10:56:10.218Z,100140.16
2017-12-29T10:58:37.627Z,100135.42
2017-12-29T11:01:05.067Z,100128.02
2017-12-29T11:03:32.486Z,100129.47
2017-12-29T11:05:59.945Z,100129.39
2017-12-29T11:08:27.382Z,100129.30
2017-12-29T11:10:54.851Z,100127.33
2017-12-29T11:13:22.256Z,100126.84
2017-12-29T11:15:49.753Z,100130.18
2017-12-29T11:18:17.247Z,100118.10
2017-12-29T11:20:44.646Z,100119.16
2017-12-29T11:23:12.087Z,100106.55
2017-12-29T11:25:39.495Z,100096.86
2017-12-29T11:28:06.955Z,100091.48
2017-12-29T11:30:34.389Z,100086.72
2017-12-29T11:33:01.863Z,100092.08
2017-12-29T11:35:29.308Z,100085.51
2017-12-29T11:37:56.732Z,100086.31
2017-12-29T11:40:24.231Z,100082.31
2017-12-29T11:42:51.643Z,100086.14
2017-12-29T11:45:19.163Z,100084.06
2017-12-29T11:47:46.542Z,100081.06
2017-12-29T11:50:13.946Z,100084.35
2017-12-29T11:52:41.390Z,100088.25
2017-12-29T11:55:08.803Z,100082.05
2017-12-29T11:57:36.213Z,100076.68
2017-12-29T12:00:03.655Z,100078.48
2017-12-29T12:02:31.062Z,100075.38
2017-12-29T12:04:59.319Z,100077.45
2017-12-29T12:07:26.743Z,100069.50
2017-12-29T12:09:54.159Z,100072.72
2017-12-29T12:12:21.604Z,100065.70
2017-12-29T12:14:49.031Z,100061.80
2017-12-29T12:17:16.443Z,100061.48
2017-12-29T12:19:43.875Z,100064.48
2017-12-29T12:22:11.282Z,100060.56
2017-12-29T12:24:38.687Z,100067.15
2017-12-29T12:27:06.128Z,100067.45
2017-12-29T12:29:33.539Z,100070.22
2017-12-29T12:32:01.036Z,100069.91
2017-12-29T12:34:28.450Z,100070.54
2017-12-29T12:36:55.870Z,100072.62
2017-12-29T12:39:23.292Z,100066.72
2017-12-29T12:41:50.723Z,100075.40
2017-12-29T12:44:18.143Z,100063.61
2017-12-29T12:46:45.582Z,100063.72
2017-12-29T12:49:13.027Z,100066.62
2017-12-29T12:51:40.478Z,100067.03
2017-12-29T12:54:07.903Z,100070.34
2017-12-29T12:56:35.331Z,100071.56
2017-12-29T12:59:02.743Z,100072.30
2017-12-29T13:01:30.155Z,100073.55
2017-12-29T13:03:57.599Z,100078.30
2017-12-29T13:06:25.020Z,100073.77
2017-12-29T13:08:52.441Z,100084.80
2017-12-29T13:11:19.966Z,100077.58
2017-12-29T13:13:47.379Z,100074.47
2017-12-29T13:16:14.802Z,100075.80
2017-12-29T13:18:42.254Z,100070.66
2017-12-29T13:21:09.662Z,100076.84
2017-12-29T13:23:37.108Z,100072.19
2017-12-29T13:26:04.559Z,100073.65
2017-12-29T13:28:32.000Z,100078.48
2017-12-29T13:30:59.496Z,100074.14
2017-12-29T13:33:26.935Z,100070.64
2017-12-29T13:35:54.348Z,100074.44
2017-12-29T13:38:21.763Z,100077.27
2017-12-29T13:40:49.216Z,100080.44
2017-12-29T13:43:16.634Z,100072.59
2017-12-29T13:45:44.096Z,100076.72
2017-12-29T13:48:11.555Z,100080.22
2017-12-29T13:50:38.958Z,100084.05
2017-12-29T13:53:06.411Z,100095.09
2017-12-29T13:55:33.858Z,100096.73
2017-12-29T13:58:01.281Z,100100.65
2017-12-29T14:00:28.720Z,100103.30
2017-12-29T14:02:56.167Z,100102.38
2017-12-29T14:05:23.591Z,100103.17
2017-12-29T14:07:51.076Z,100104.41
2017-12-29T14:10:19.433Z,100109.25
2017-12-29T14:12:46.875Z,100107.36
2017-12-29T14:15:14.279Z,100113.76
2017-12-29T14:17:41.690Z,100112.83
2017-12-29T14:20:09.150Z,100114.87
2017-12-29T14:22:36.561Z,100120.64
2017-12-29T14:25:03.978Z,100116.29
2017-12-29T14:27:31.419Z,100113.28
2017-12-29T14:29:58.827Z,100108.95
2017-12-29T14:32:26.334Z,100106.65
2017-12-29T14:34:54.180Z,100114.05
2017-12-29T14:37:21.575Z,100112.19
2017-12-29T14:39:48.983Z,100113.49
2017-12-29T14:42:16.408Z,100110.06
2017-12-29T14:44:43.804Z,100107.38
2017-12-29T14:47:11.274Z,100107.27
2017-12-29T14:49:38.705Z,100110.42
2017-12-29T14:52:06.099Z,100115.55
2017-12-29T14:54:33.539Z,100116.25
2017-12-29T14:57:00.989Z,100117.98
2017-12-29T14:59:28.386Z,100118.16
2017-12-29T15:01:55.972Z,100110.09
2017-12-29T15:04:23.380Z,100119.22
2017-12-29T15:06:50.782Z,100117.02
2017-12-29T15:09:18.211Z,100112.06
2017-12-29T15:11:45.624Z,100110.61
2017-12-29T15:14:13.031Z,100113.34
2017-12-29T15:16:40.459Z,100116.19
2017-12-29T15:19:07.866Z,100112.34
2017-12-29T15:21:35.263Z,100116.87
2017-12-29T15:24:02.706Z,100118.67
2017-12-29T15:26:30.110Z,100118.54
2017-12-29T15:28:57.535Z,100117.55
2017-12-29T15:31:24.975Z,100118.58
2017-12-29T15:33:52.399Z,100123.88
2017-12-29T15:36:19.815Z,100122.77
2017-12-29T15:38:47.245Z,100124.67
2017-12-29T15:41:14.715Z,100124.42
2017-12-29T15:43:42.192Z,100123.16
2017-12-29T15:46:09.623Z,100123.85
2017-12-29T15:48:37.031Z,100123.03
2017-12-29T15:51:04.465Z,100119.80
2017-12-29T15:53:31.884Z,100120.16
2017-12-29T15:55:59.348Z,100117.05
2017-12-29T15:58:26.880Z,100119.78
2017-12-29T16:00:56.898Z,100122.72
2017-12-29T16:03:24.320Z,100114.34
2017-12-29T16:05:51.851Z,100121.89
2017-12-29T16:08:19.262Z,100120.12
2017-12-29T16:10:46.683Z,100116.67
2017-12-29T16:13:14.135Z,100111.66
2017-12-29T16:15:41.531Z,100108.42
2017-12-29T16:18:08.943Z,100101.20
2017-12-29T16:20:36.398Z,100112.34
2017-12-29T16:23:03.824Z,100112.17
2017-12-29T16:25:31.234Z,100114.02
2017-12-29T16:27:58.654Z,100111.19
2017-12-29T16:30:26.084Z,100112.88
2017-12-29T16:32:53.526Z,100112.55
2017-12-29T16:35:21.085Z,100103.30
2017-12-29T16:37:48.472Z,100096.59
2017-12-29T16:40:15.894Z,100102.41
2017-12-29T16:42:43.306Z,100106.62
2017-12-29T16:45:10.785Z,100102.84
2017-12-29T16:47:38.299Z,100095.55
2017-12-29T16:50:05.702Z,100094.08
2017-12-29T16:55:23.758Z,100083.76
2017-12-29T16:57:51.164Z,100087.80
2017-12-29T17:00:18.643Z,100084.94
2017-12-29T17:02:46.083Z,100075.32
2017-12-29T17:05:13.500Z,100077.86
2017-12-29T17:07:40.918Z,100079.03
2017-12-29T17:10:08.363Z,100080.98
2017-12-29T17:12:35.803Z,100073.48
2017-12-29T17:15:03.220Z,100070.88
2017-12-29T17:17:30.675Z,100071.22
2017-12-29T17:19:58.100Z,100067.11
2017-12-29T17:22:25.531Z,100067.59
2017-12-29T17:24:52.980Z,100063.87
2017-12-29T17:27:20.396Z,100063.56
2017-12-29T17:29:47.821Z,100055.02
2017-12-29T17:32:15.267Z,100050.73
2017-12-29T17:34:42.683Z,100055.16
2017-12-29T17:37:10.110Z,100050.78
2017-12-29T17:39:37.536Z,100044.77
2017-12-29T17:42:05.000Z,100045.86
2017-12-29T17:44:32.386Z,100050.78
2017-12-29T17:46:59.820Z,100045.95
2017-12-29T17:49:27.224Z,100044.86
2017-12-29T17:51:54.648Z,100037.44
2017-12-29T17:54:22.086Z,100033.50
2017-12-29T17:56:49.501Z,100029.98
2017-12-29T17:59:16.898Z,100025.98
2017-12-29T18:01:44.350Z,100029.40
2017-12-29T18:04:11.759Z,100020.09
2017-12-29T18:06:39.259Z,100023.34
2017-12-29T18:09:06.706Z,100033.16
2017-12-29T18:11:34.115Z,100029.83
2017-12-29T18:14:01.924Z,100023.81
2017-12-29T18:16:29.482Z,100015.81
2017-12-29T18:18:56.876Z,100013.97
2017-12-29T18:21:24.301Z,100018.86
2017-12-29T18:23:51.791Z,100016.26
2017-12-29T18:26:19.253Z,100015.44
2017-12-29T18:28:46.678Z,100011.95
2017-12-29T18:31:14.417Z,100009.80
2017-12-29T18:33:41.967Z,100009.21
2017-12-29T18:36:09.450Z,100000.16
2017-12-29T18:38:36.914Z,100004.73
2017-12-29T18:41:04.333Z,100001.59
2017-12-29T18:43:31.821Z,99994.68
2017-12-29T18:45:59.227Z,99989.04
2017-12-29T18:48:26.611Z,99995.52
2017-12-29T18:50:54.190Z,99988.93
2017-12-29T18:53:21.599Z,99999.63
2017-12-29T18:55:49.016Z,99992.14
2017-12-29T18:58:16.431Z,99993.67
2017-12-29T19:00:43.915Z,99988.65
2017-12-29T19:03:11.395Z,99994.15
2017-12-29T19:05:38.934Z,99996.34
2017-12-29T19:08:06.376Z,99993.70
2017-12-29T19:10:33.785Z,99994.52
2017-12-29T19:13:01.207Z,99997.53
2017-12-29T19:15:28.610Z,99992.20
2017-12-29T19:17:56.116Z,99999.44
2017-12-29T19:20:23.530Z,99998.28
2017-12-29T19:22:50.923Z,99997.53
2017-12-29T19:25:18.395Z,99997.55
2017-12-29T19:27:45.799Z,99997.59
2017-12-29T19:30:13.217Z,99999.12
2017-12-29T19:32:40.663Z,99994.33
2017-12-29T19:35:08.097Z,99998.94
2017-12-29T19:37:35.670Z,99987.95
2017-12-29T19:40:03.080Z,99991.30
2017-12-29T19:42:30.597Z,99990.80
2017-12-29T19:44:58.006Z,99989.69
2017-12-29T19:47:25.405Z,99992.63
2017-12-29T19:49:52.822Z,99990.88
2017-12-29T19:52:20.317Z,99994.13
2017-12-29T19:54:47.790Z,99990.27
2017-12-29T19:57:15.222Z,99991.15
2017-12-29T19:59:42.613Z,99994.78
2017-12-29T20:02:10.033Z,99988.25
2017-12-29T20:04:37.474Z,99988.04
2017-12-29T20:07:04.950Z,99989.05
2017-12-29T20:09:32.351Z,99981.77
2017-12-29T20:11:59.874Z,99971.23
2017-12-29T20:14:27.321Z,99975.40
2017-12-29T20:16:54.731Z,99980.48
2017-12-29T20:19:22.244Z,99985.88
2017-12-29T20:21:49.647Z,99978.47
2017-12-29T20:24:17.084Z,99978.91
2017-12-29T20:26:44.694Z,99987.94
2017-12-29T20:29:12.092Z,99980.67
2017-12-29T20:31:39.518Z,99981.09
2017-12-29T20:34:06.951Z,99970.48
2017-12-29T20:36:34.354Z,99972.31
2017-12-29T20:39:01.803Z,99967.05
2017-12-29T20:41:29.228Z,99967.35
2017-12-29T20:43:56.642Z,99974.56
2017-12-29T20:46:24.060Z,99975.32
2017-12-29T20:48:51.551Z,99966.68
2017-12-29T20:51:18.942Z,99957.21
2017-12-29T20:53:46.354Z,99963.63
2017-12-29T20:56:13.797Z,99959.94
2017-12-29T20:58:41.206Z,99953.41
2017-12-29T21:01:08.711Z,99952.34
2017-12-29T21:03:36.133Z,99956.67
2017-12-29T21:06:03.538Z,99958.97
2017-12-29T21:08:30.984Z,99952.92
2017-12-29T21:10:58.421Z,99953.87
2017-12-29T21:13:25.850Z,99954.30
2017-12-29T21:15:53.266Z,99946.29
2017-12-29T21:18:20.706Z,99952.44
2017-12-29T21:20:48.170Z,99957.23
2017-12-29T21:23:15.578Z,99958.73
2017-12-29T21:25:42.993Z,99960.16
2017-12-29T21:28:10.454Z,99970.13
2017-12-29T21:30:37.887Z,99968.56
2017-12-29T21:33:05.305Z,99966.09
2017-12-29T21:35:32.891Z,99964.92
2017-12-29T21:38:00.291Z,99962.27
2017-12-29T21:40:27.715Z,99974.75
2017-12-29T21:42:55.156Z,99969.23
2017-12-29T21:45:22.564Z,99964.52
2017-12-29T21:47:50.074Z,99968.77
2017-12-29T21:50:17.511Z,99964.27
2017-12-29T21:52:45.008Z,99966.09
2017-12-29T21:55:12.454Z,99962.84
2017-12-29T21:57:39.862Z,99954.13
2017-12-29T22:00:07.374Z,99963.10
2017-12-29T22:02:34.799Z,99959.11
2017-12-29T22:05:02.211Z,99968.21
2017-12-29T22:07:29.620Z,99967.87
2017-12-29T22:09:57.071Z,99967.70
2017-12-29T22:12:24.482Z,99975.69
2017-12-29T22:14:51.914Z,99967.05
2017-12-29T22:17:19.368Z,99971.45
2017-12-29T22:19:46.775Z,99969.72
2017-12-29T22:22:14.180Z,99964.19
2017-12-29T22:24:41.646Z,99964.55
2017-12-29T22:27:09.096Z,99966.65
2017-12-29T22:29:36.539Z,99967.16
2017-12-29T22:32:03.959Z,99959.44
2017-12-29T22:34:31.458Z,99957.38
2017-12-29T22:36:58.977Z,99951.16
2017-12-29T22:39:26.374Z,99951.25
2017-12-29T22:41:53.780Z,99945.83
2017-12-29T22:44:21.194Z,99949.83
2017-12-29T22:46:48.628Z,99950.75
2017-12-29T22:49:16.205Z,99956.98
2017-12-29T22:51:43.687Z,99952.59
2017-12-29T22:54:11.127Z,99941.33
2017-12-29T22:56:38.534Z,99946.67
2017-12-29T22:59:05.944Z,99949.48
2017-12-29T23:01:33.367Z,99949.92
2017-12-29T23:04:00.775Z,99951.32
2017-12-29T23:06:28.207Z,99954.08
2017-12-29T23:08:55.632Z,99945.27
2017-12-29T23:11:23.051Z,99949.02
2017-12-29T23:13:50.582Z,99949.94
2017-12-29T23:16:17.991Z,99950.20
2017-12-29T23:18:45.423Z,99940.91
2017-12-29T23:21:12.938Z,99939.93
2017-12-29T23:23:40.351Z,99944.74
2017-12-29T23:26:07.782Z,99942.84
2017-12-29T23:28:35.197Z,99937.73
2017-12-29T23:31:02.619Z,99942.64
2017-12-29T23:33:30.071Z,99944.74
2017-12-29T23:35:57.478Z,99946.06
2017-12-29T23:38:24.923Z,99946.98
2017-12-29T23:40:52.343Z,99950.41
2017-12-29T23:43:19.750Z,99945.09
2017-12-29T23:45:47.166Z,99945.98
2017-12-29T23:48:14.652Z,99946.89
2017-12-29T23:50:42.055Z,99945.09
2017-12-29T23:53:09.466Z,99940.75
2017-12-29T23:55:36.917Z,99944.38
2017-12-29T23:58:04.302Z,99950.31
